Airfield :
LOGIN :

Register | Disclaimer

   EN    FR    IT 

 










Legend :    VFR   Marginal VFR   IFR   Intensive IFR   Very Intensive IFR
Visi :
Ceiling :
>= 8 km
>= 3000ft
5 to 8 km
1000 to 3000 ft
1500m to 5 km
500 to 1000 ft
800 to 1500m
200 to 500 ft
< 800m
< 200 ft
Symbols :   Thunderstorms  Fog  Heavy snow  Heavy precipitations  Wind > 20 kt
SIGMETs :     Misc.  Thunderstorms  Icing  Turbulence  Mountain Waves  Volcanic Ashes







- Airport Elevation : 468 ft
- IATA code : BQT


UMBB - Brest

CURRENT METAR :
  • 261000Z 26007G10MPS 8000 SCT040CB SCT100 06/M03 Q1014 R29/CLRD// NOSIG

EXPIRED METARs :
  • 260930Z 29007G10MPS 8000 SCT035CB SCT100 05/M03 Q1015 R29/CLRD// NOSIG
  • 260900Z 30007G10MPS 8000 SCT033CB SCT100 05/M03 Q1015 R29/CLRD// NOSIG
  • 260830Z 28007G10MPS 8000 SCT033CB SCT100 03/M03 Q1015 R29/190060 NOSIG
  • 260800Z 29007G10MPS 7000 BKN024CB 03/M03 Q1015 R29/190060 NOSIG
  • 260730Z 31006G09MPS 7000 BKN021CB 03/M02 Q1015 R29/190060 NOSIG

TAF TAF UMBB
Valid from the 26 at 09:00 until the 26 at 18:00 UTC


260805Z 2609/2618 30006G11MPS 6000 BKN010 BKN015CB
TEMPO 2609/2617 27008G13MPS 2000 SHRASN BR BKN005
No reported NOTAMs for that airfield.



MET'MAP, your aeronautical weather chart ! - Copyright ORBIFLY December 2007 - Disclaimer

ORBIFLY MET'MAP TEAM :

Programming & Development : Alexandra Zaïnal
Concept & Development : Baudouin d'Aumeries
Co-Development & Prog : Marc-Olivier Méhu
Technical & hardware support : Manuel Goepfert

Contact : metmap@orbifly.com




SOURCES & CREDITS :

   NOAA